»·PEaware :: N1655M KSBA-KBUR

N1655M :: KSBA-KBUR

FLIGHT INFORMATION

Flight Status: Arrived
Operator: Privately registered:
United States
More flights under this callsign
Pilot: Donivan M. (20253)
Aircraft: CESSNA 172 SKYHAWK
(C172)
More flights by this aircraft type
Origin: KSBA Santa Barbara Mun
United States
Destination: KBUR Bob Hope-Burbank
United States
More flights between these airports :: More routes between these airports
Route: KWANG CMA TOAKS
File this flight plan on PilotEdge
Remarks: CAT 8 Rating
Altitude:
(Current/Filed)
3,000ft
Speed:
(Current/Filed)
105kts
Departed: 06-Oct-18 09:16 PM
Arrived: 06-Oct-18 10:01 PM
Distance/Time
Traveled:
75nm/0:45
Distance/Time
To Go:
Arrived

Flight Plot

Page will automatically refresh every two minutes.


Map Options




Map Legend


Flown Route
Filed Route
Departure Airport
Arrival Airport
Navaid (VOR, NDB)
Fix

Horizontal Profiles

Position Reports

Time Latitude Longitude Heading Altitude Ground
Speed
06-Oct-18 20:45 34.422664 -119.835593 340 10ft 0kts
06-Oct-18 20:46 34.422664 -119.835593 340 10ft 0kts
06-Oct-18 20:47 34.422664 -119.835593 340 10ft 0kts
06-Oct-18 20:48 34.422664 -119.835593 340 10ft 0kts
06-Oct-18 20:49 34.422664 -119.835593 340 10ft 0kts
06-Oct-18 20:50 34.422664 -119.835593 340 10ft 0kts
06-Oct-18 20:51 34.422664 -119.835594 340 10ft 0kts
06-Oct-18 20:52 34.422664 -119.835594 340 10ft 0kts
06-Oct-18 20:53 34.422664 -119.835594 340 10ft 0kts
06-Oct-18 20:54 34.422664 -119.835594 340 10ft 0kts
06-Oct-18 20:55 34.422664 -119.835594 340 10ft 0kts
06-Oct-18 20:56 34.422664 -119.835594 340 10ft 0kts
06-Oct-18 20:57 34.422664 -119.835594 340 10ft 0kts
06-Oct-18 20:58 34.422664 -119.835594 340 10ft 0kts
06-Oct-18 20:59 34.422664 -119.835594 340 10ft 0kts
06-Oct-18 21:00 34.422664 -119.835594 340 10ft 0kts
06-Oct-18 21:01 34.422664 -119.835594 340 10ft 0kts
06-Oct-18 21:02 34.422664 -119.835594 340 10ft 0kts
06-Oct-18 21:03 34.422664 -119.835594 340 10ft 0kts
06-Oct-18 21:04 34.422664 -119.835594 340 10ft 0kts
06-Oct-18 21:05 34.422664 -119.835594 340 10ft 0kts
06-Oct-18 21:06 34.422664 -119.835594 340 10ft 0kts
06-Oct-18 21:07 34.422664 -119.835594 340 10ft 0kts
06-Oct-18 21:08 34.422664 -119.835594 340 10ft 0kts
06-Oct-18 21:09 34.422639 -119.835892 243 10ft 8kts
06-Oct-18 21:10 34.424666 -119.837719 346 12ft 14kts
06-Oct-18 21:11 34.428979 -119.839048 345 14ft 16kts
06-Oct-18 21:12 34.430260 -119.839242 304 14ft 0kts
06-Oct-18 21:13 34.430260 -119.839242 304 14ft 0kts
06-Oct-18 21:14 34.430260 -119.839242 304 14ft 0kts
06-Oct-18 21:15 34.430260 -119.839242 304 14ft 0kts
06-Oct-18 21:16 34.430499 -119.839574 321 14ft 13kts
06-Oct-18 21:17 34.429828 -119.840042 165 14ft 36kts
06-Oct-18 21:18 34.414322 -119.837103 167 595ft 70kts
06-Oct-18 21:19 34.394895 -119.832807 163 1432ft 71kts
06-Oct-18 21:20 34.387400 -119.809356 80 2088ft 77kts
06-Oct-18 21:21 34.391962 -119.788133 72 2684ft 79kts
06-Oct-18 21:22 34.394743 -119.756180 102 3021ft 95kts
06-Oct-18 21:23 34.385920 -119.729658 112 3056ft 107kts
06-Oct-18 21:24 34.373426 -119.695205 112 3028ft 113kts
06-Oct-18 21:25 34.361203 -119.660594 109 3020ft 111kts
06-Oct-18 21:26 34.349197 -119.625895 108 3033ft 111kts
06-Oct-18 21:27 34.336033 -119.591675 112 3041ft 112kts
06-Oct-18 21:28 34.323500 -119.556949 111 3009ft 113kts
06-Oct-18 21:29 34.311318 -119.522024 109 3018ft 112kts
06-Oct-18 21:30 34.302119 -119.485898 101 3024ft 112kts
06-Oct-18 21:31 34.294269 -119.448995 102 2977ft 113kts
06-Oct-18 21:32 34.285935 -119.412476 103 2980ft 113kts
06-Oct-18 21:33 34.276454 -119.376162 103 2983ft 113kts
06-Oct-18 21:34 34.268379 -119.340361 102 2990ft 113kts
06-Oct-18 21:35 34.259194 -119.303805 101 3006ft 113kts
06-Oct-18 21:36 34.251193 -119.266852 104 3002ft 114kts
06-Oct-18 21:37 34.241750 -119.230344 105 2987ft 113kts
06-Oct-18 21:38 34.232884 -119.193953 102 3009ft 112kts
06-Oct-18 21:39 34.223594 -119.158023 102 3025ft 111kts
06-Oct-18 21:40 34.218068 -119.121212 101 3048ft 111kts
06-Oct-18 21:41 34.212501 -119.084214 91 2991ft 111kts
06-Oct-18 21:42 34.211286 -119.046673 94 3005ft 112kts
06-Oct-18 21:43 34.209720 -119.008956 94 3030ft 112kts
06-Oct-18 21:44 34.208197 -118.971106 92 3003ft 113kts
06-Oct-18 21:45 34.207635 -118.933039 93 3005ft 113kts
06-Oct-18 21:46 34.207198 -118.894926 92 2988ft 113kts
06-Oct-18 21:47 34.206626 -118.856690 91 2961ft 114kts
06-Oct-18 21:48 34.204321 -118.818643 97 2971ft 113kts
06-Oct-18 21:49 34.202167 -118.780548 92 3000ft 114kts
06-Oct-18 21:50 34.203429 -118.740317 91 2959ft 121kts
06-Oct-18 21:51 34.204416 -118.699848 91 2963ft 120kts
06-Oct-18 21:52 34.205159 -118.659082 90 2961ft 122kts
06-Oct-18 21:53 34.204236 -118.618261 97 2982ft 122kts
06-Oct-18 21:54 34.202022 -118.577793 92 3058ft 113kts
06-Oct-18 21:55 34.200618 -118.539186 93 3062ft 115kts
06-Oct-18 21:56 34.199697 -118.506612 91 3029ft 81kts
06-Oct-18 21:57 34.199426 -118.478129 92 2562ft 76kts
06-Oct-18 21:58 34.199106 -118.452155 92 2123ft 77kts
06-Oct-18 21:59 34.198774 -118.428537 91 1732ft 65kts
06-Oct-18 22:00 34.198464 -118.406670 92 1387ft 65kts
06-Oct-18 22:01 34.198121 -118.385783 92 1064ft 61kts
06-Oct-18 22:02 34.197876 -118.365513 95 725ft 50kts
06-Oct-18 22:03 34.199279 -118.360262 6 720ft 11kts
06-Oct-18 22:04 34.199790 -118.359957 85 721ft 0kts
06-Oct-18 22:05 34.199790 -118.359957 85 721ft 0kts

Navigation Log

Ident Type
Flight plan parsing failed, navigation log unavailable